Flight Track Log - Related Links

Times and Time Zones

All times are in EDT time to prevent confusion due to time zone crossing. See the UAL4407 flight status page for this flight to view local times or setup timezone preferences in your user account.


Time Position Orientation Groundspeed Altitude Reporting Facility
EDT Latitude Longitude Course Direction KTS MPH feet Rate Location/Type
Fri 08:33:08 AM 40.6167 -74.2000 270° West 208 239 2,300  Level New York TRACON
Fri 08:34:08 AM 40.5833 -74.2500 229° Southwest 259 298 4,600 2,350 Climbing New York TRACON
Fri 08:35:08 AM 40.6167 -74.3500 294° West 272 313 7,000 2,165 Climbing New York TRACON
Fri 08:36:46 AM 40.6681 -74.4783 298° West 288 331 10,300 1,698 Climbing New York Center
Fri 08:37:47 AM 40.7103 -74.5928 296° West 325 374 11,500 1,426 Climbing New York Center
Fri 08:38:00 AM 40.8667 -74.9537 270° West  Level FlightAware Approximate
Fri 08:38:48 AM 40.7542 -74.7131 296° West 345 397 13,200  Level New York Center
Fri 08:39:46 AM 40.7942 -74.8194 296° West 374 430 14,900 1,525 Climbing New York Center
Fri 08:40:46 AM 40.8361 -74.9344 296° West 359 413 16,200 1,300 Climbing New York Center
Fri 08:41:46 AM 40.8633 -75.0458 288° West 354 407 17,500 1,438 Climbing New York Center
Fri 08:42:47 AM 40.8458 -75.1847 261° West 349 402 19,100 1,636 Climbing New York Center
Fri 08:43:47 AM 40.8219 -75.3175 257° West 354 407 20,800 1,587 Climbing New York Center
Fri 08:44:48 AM 40.8006 -75.4422 257° West 359 413 22,300 1,513 Climbing New York Center
Fri 08:45:46 AM 40.7808 -75.5669 258° West 359 413 23,800 1,462 Climbing New York Center
Fri 08:46:47 AM 40.7589 -75.6942 257° West 354 407 25,200 1,388 Climbing New York Center
Fri 08:47:47 AM 40.7369 -75.8214 257° West 354 407 26,600 1,230 Climbing New York Center
Fri 08:48:49 AM 40.7147 -75.9511 257° West 354 407 27,700 958 Climbing New York Center
Fri 08:49:46 AM 40.6950 -76.0672 257° West 354 407 28,500 966 Climbing New York Center
Fri 08:50:47 AM 40.6700 -76.2022 256° West 372 428 29,600 1,041 Climbing New York Center
Fri 08:51:47 AM 40.6781 -76.3453 274° West 377 434 30,600 1,000 Climbing New York Center
Fri 08:52:47 AM 40.7006 -76.4811 282° West 382 440 31,600 992 Climbing New York Center
Fri 08:53:48 AM 40.7208 -76.6225 281° West 393 452 32,600 1,041 Climbing New York Center
Fri 08:54:48 AM 40.7408 -76.7667 280° West 393 452 33,700 1,068 Climbing New York Center
Fri 08:55:46 AM 40.7628 -76.9083 282° West 393 452 34,700 1,008 Climbing New York Center
Fri 08:56:47 AM 40.7844 -77.0475 282° West 393 452 35,700 639 Climbing New York Center
Fri 08:57:48 AM 40.8042 -77.1892 280° West 393 452 36,000 151 Climbing New York Center
Fri 08:58:46 AM 40.8247 -77.3419 280° West 404 465 36,000  Level New York Center
Fri 08:59:46 AM 40.8472 -77.4978 281° West 419 482 36,000  Level New York Center
Fri 09:00:46 AM 40.8694 -77.6592 280° West 432 497 36,000  Level New York Center
Fri 09:01:44 AM 40.8906 -77.8197 280° West 450 518 36,000  Level Cleveland Center
Fri 09:02:44 AM 40.9131 -77.9811 281° West 445 512 36,000  Level Cleveland Center
Fri 09:03:44 AM 40.9356 -78.1450 280° West 445 512 36,000  Level Cleveland Center
Fri 09:04:44 AM 40.9600 -78.3283 280° West 456 525 36,000  Level Cleveland Center
Fri 09:05:44 AM 40.9800 -78.4928 279° West 456 525 36,000  Level Cleveland Center
Fri 09:06:44 AM 40.9994 -78.6572 279° West 456 525 36,000  Level Cleveland Center
Fri 09:07:44 AM 41.0189 -78.8244 279° West 462 532 36,000  Level Cleveland Center
Fri 09:08:44 AM 41.0381 -78.9892 279° West 462 532 36,000  Level Cleveland Center
Fri 09:09:44 AM 41.0569 -79.1567 279° West 468 539 36,000  Level Cleveland Center
Fri 09:10:44 AM 41.0753 -79.3189 279° West 468 539 36,000  Level Cleveland Center
Fri 09:11:44 AM 41.0939 -79.4811 279° West 463 533 36,000  Level Cleveland Center
Fri 09:12:44 AM 41.1119 -79.6461 278° West 458 527 36,000  Level Cleveland Center
Fri 09:13:44 AM 41.1275 -79.7811 279° West 458 527 36,000  Level Cleveland Center
Fri 09:14:44 AM 41.1475 -79.9792 278° West 465 535 36,000  Level Cleveland Center
Fri 09:15:44 AM 41.1669 -80.1444 279° West 459 528 36,000  Level Cleveland Center
Fri 09:16:44 AM 41.1842 -80.3072 278° West 459 528 36,000  Level Cleveland Center
Fri 09:17:44 AM 41.1969 -80.4783 276° West 466 536 36,000  Level Cleveland Center
Fri 09:18:44 AM 41.2136 -80.6411 278° West 460 529 36,000  Level Cleveland Center
Fri 09:19:44 AM 41.2322 -80.8122 278° West 460 529 36,000  Level Cleveland Center
Fri 09:20:44 AM 41.2483 -80.9753 278° West 460 529 36,000  Level Cleveland Center
Fri 09:21:44 AM 41.2625 -81.1356 277° West 455 524 36,000  Level Cleveland Center
Fri 09:22:44 AM 41.2781 -81.3014 277° West 450 518 36,000  Level Cleveland Center
Fri 09:23:44 AM 41.2978 -81.4619 279° West 444 511 36,000  Level Cleveland Center
Fri 09:24:44 AM 41.3111 -81.6281 276° West 444 511 36,000  Level Cleveland Center
Fri 09:25:44 AM 41.3261 -81.7886 277° West 444 511 36,000  Level Cleveland Center
Fri 09:26:44 AM 41.3411 -81.9522 277° West 444 511 36,000  Level Cleveland Center
Fri 09:27:44 AM 41.3556 -82.1128 277° West 444 511 36,000  Level Cleveland Center
Fri 09:28:44 AM 41.3636 -82.2792 274° West 454 522 36,000  Level Cleveland Center
Fri 09:29:44 AM 41.3736 -82.4425 275° West 449 517 36,000  Level Cleveland Center
Fri 09:30:44 AM 41.3833 -82.6061 275° West 449 517 36,000  Level Cleveland Center
Fri 09:31:44 AM 41.3908 -82.7697 274° West 444 511 36,000  Level Cleveland Center
Fri 09:32:44 AM 41.4000 -82.9306 274° West 444 511 36,000  Level Cleveland Center
Fri 09:33:44 AM 41.4069 -83.0942 273° West 444 511 36,000  Level Cleveland Center
Fri 09:34:44 AM 41.4119 -83.2411 273° West 444 511 36,000  Level Cleveland Center
Fri 09:35:44 AM 41.4228 -83.4022 275° West 444 511 36,000  Level Cleveland Center
Fri 09:36:44 AM 41.4292 -83.5658 273° West 444 511 36,000  Level Cleveland Center
Fri 09:37:44 AM 41.4372 -83.7297 274° West 444 511 36,000  Level Cleveland Center
Fri 09:38:36 AM 41.4450 -83.8783 274° West 444 511 36,000  Level Chicago Center
Fri 09:39:38 AM 41.4514 -84.0425 273° West 445 512 36,000  Level Chicago Center
Fri 09:40:40 AM 41.4583 -84.2064 273° West 445 512 36,000  Level Chicago Center
Fri 09:41:42 AM 41.4647 -84.3706 273° West 447 514 36,000  Level Chicago Center
Fri 09:42:44 AM 41.4722 -84.5675 273° West 445 512 36,000  Level Chicago Center
Fri 09:43:46 AM 41.4775 -84.7317 273° West 443 510 36,000  Level Chicago Center
Fri 09:44:48 AM 41.4833 -84.8961 273° West 443 510 36,000  Level Chicago Center
Fri 09:45:50 AM 41.4875 -85.0603 272° West 443 510 36,000  Level Chicago Center
Fri 09:46:52 AM 41.4917 -85.2264 272° West 445 512 36,000  Level Chicago Center
Fri 09:47:54 AM 41.4950 -85.3964 272° West 449 517 36,000  Level Chicago Center
Fri 09:48:56 AM 41.5008 -85.5678 273° West 453 521 36,000  Level Chicago Center
Fri 09:49:58 AM 41.5061 -85.7325 273° West 448 516 36,000  Level Chicago Center
Fri 09:51:00 AM 41.5108 -85.9003 272° West 456 525 36,000  Level Chicago Center
Fri 09:52:02 AM 41.5161 -86.0981 272° West 447 514 36,000  Level Chicago Center
Fri 09:53:04 AM 41.5194 -86.2625 272° West 445 512 36,000  Level Chicago Center
Fri 09:54:06 AM 41.5219 -86.4256 271° West 440 506 36,000  Level Chicago Center
Fri 09:55:08 AM 41.5261 -86.5922 272° West 446 513 36,000  Level Chicago Center
Fri 09:56:10 AM 41.5278 -86.7525 271° West 446 513 36,000  Level Chicago Center
Fri 09:57:12 AM 41.5308 -86.9514 271° West 448 516 36,000  Level Chicago Center
Fri 09:58:14 AM 41.5339 -87.1172 271° West 450 518 36,000  Level Chicago Center
Fri 09:59:16 AM 41.5353 -87.2819 271° West 448 516 36,000  Level Chicago Center
Fri 10:00:18 AM 41.5375 -87.4472 271° West 449 517 36,000  Level Chicago Center
Fri 10:01:20 AM 41.5394 -87.6125 271° West 448 516 36,000  Level Chicago Center
Fri 10:02:22 AM 41.5417 -87.8097 271° West 450 518 36,000  Level Chicago Center
Fri 10:03:24 AM 41.5425 -87.9728 270° West 452 520 36,000  Level Chicago Center
Fri 10:04:26 AM 41.5439 -88.1342 271° West 455 524 36,000  Level Chicago Center
Fri 10:05:28 AM 41.5444 -88.3322 270° West 455 524 36,000  Level Chicago Center
Fri 10:06:31 AM 41.5442 -88.4961 270° West 450 518 36,000  Level Chicago Center
Fri 10:07:33 AM 41.5447 -88.6603 270° West 448 516 36,000  Level Chicago Center
Fri 10:08:35 AM 41.5442 -88.8258 270° West 450 518 36,000  Level Chicago Center
Fri 10:10:00 AM 41.5336 -89.0407 270° West  Level FlightAware Approximate
Fri 10:10:39 AM 41.5436 -89.1900 270° West 451 519 36,000  Level Chicago Center
Fri 10:11:41 AM 41.5442 -89.3567 270° West 452 520 36,000  Level Chicago Center
Fri 10:12:43 AM 41.5458 -89.5233 271° West 452 520 36,000  Level Chicago Center
Fri 10:13:45 AM 41.5481 -89.6861 271° West 454 522 36,000  Level Chicago Center
Fri 10:14:47 AM 41.5514 -89.8506 272° West 449 517 36,000  Level Chicago Center
Fri 10:15:49 AM 41.5547 -90.0519 271° West 454 522 36,000  Level Chicago Center
Fri 10:16:51 AM 41.5567 -90.2192 271° West 455 524 36,000  Level Chicago Center
Fri 10:17:53 AM 41.5578 -90.3897 271° West 461 531 36,000  Level Chicago Center
Fri 10:18:56 AM 41.5589 -90.5553 271° West 451 519 36,000  Level Chicago Center
Fri 10:19:58 AM 41.5608 -90.7508 271° West 451 519 36,000  Level Chicago Center
Fri 10:21:00 AM 41.5619 -90.9181 271° West 452 520 36,000  Level Chicago Center
Fri 10:22:02 AM 41.5628 -91.0853 270° West 454 522 36,000  Level Chicago Center
Fri 10:23:04 AM 41.5631 -91.2508 270° West 450 518 36,000  Level Chicago Center
Fri 10:24:06 AM 41.5642 -91.4172 271° West 451 519 36,000  Level Chicago Center
Fri 10:25:08 AM 41.5644 -91.5842 270° West 451 519 36,000  Level Chicago Center
Fri 10:26:10 AM 41.5642 -91.7853 270° West 454 522 36,000  Level Chicago Center
Fri 10:27:12 AM 41.5644 -91.9508 270° West 450 518 36,000  Level Chicago Center
Fri 10:28:14 AM 41.5636 -92.1119 270° West 441 507 36,000  Level Chicago Center
Fri 10:29:16 AM 41.5631 -92.2722 270° West 436 502 36,000  Level Chicago Center
Fri 10:30:18 AM 41.5622 -92.4322 270° West 433 498 36,000  Level Chicago Center
Fri 10:31:21 AM 41.5608 -92.6200 269° West 426 490 36,000  Level Chicago Center
Fri 10:32:20 AM 41.5600 -92.7200 269° West 426 490 36,000 -446 Level Minneapolis Center
Fri 10:33:22 AM 41.5572 -92.9364 269° West 423 487 35,100 -968 Descending Minneapolis Center
Fri 10:34:24 AM 41.5556 -93.0956 269° West 428 493 34,000 -532 Descending Minneapolis Center
Fri 10:35:26 AM 41.5536 -93.2564 269° West 435 501 34,000  Level Minneapolis Center
Fri 10:36:40 AM 41.5503 -93.4481 269° West 436 502 34,000  Level Minneapolis Center
Fri 10:37:43 AM 41.5494 -93.6378 270° West 432 497 34,000 -339 Level Minneapolis Center
Fri 10:38:44 AM 41.5467 -93.7992 269° West 437 503 33,300 -1,073 Descending Minneapolis Center
Fri 10:39:46 AM 41.5436 -93.9231 268° West 431 496 31,800 -1,742 Descending Minneapolis Center
Fri 10:40:48 AM 41.5403 -94.1000 269° West 408 470 29,700 -1,887 Descending Minneapolis Center
Fri 10:41:50 AM 41.5364 -94.2822 268° West 432 497 27,900 -1,984 Descending Minneapolis Center
Fri 10:42:52 AM 41.5322 -94.4525 268° West 453 521 25,600 -2,160 Descending Minneapolis Center
Fri 10:43:55 AM 41.5278 -94.6181 268° West 450 518 23,400 -2,112 Descending Minneapolis Center
Fri 10:44:57 AM 41.5236 -94.7739 268° West 429 494 21,200 -2,380 Descending Minneapolis Center
Fri 10:45:56 AM 41.5311 -94.9589 273° West 400 460 18,600 -2,412 Descending Minneapolis Center
Fri 10:46:39 AM 41.5261 -95.0600 266° West 393 452 17,100 -1,486 Descending Minneapolis Center
Fri 10:47:45 AM 41.5119 -95.2122 263° West 384 442 15,900 -1,339 Descending Minneapolis Center
Fri 10:48:40 AM 41.4861 -95.3211 252° West 328 377 14,400 -1,810 Descending Minneapolis Center
Fri 10:49:41 AM 41.4583 -95.4333 252° West 308 354 12,400 -2,033 Descending Minneapolis Center
Fri 10:50:41 AM 41.4283 -95.5425 250° West 296 341 10,300 -1,983 Descending Minneapolis Center
Fri 10:51:36 AM 41.4067 -95.6231 250° West 264 304 8,600 -1,467 Descending Minneapolis Center
Fri 10:52:11 AM 41.3975 -95.6392 233° Southwest 289 333 8,100 -1,979 Descending Minneapolis Center
Fri 10:53:13 AM 41.3472 -95.7311 234° Southwest 270 311 5,400 -2,613 Descending Minneapolis Center

Login

Don't have an account? Register now (free) for customized features, flight alerts, and more!